createdAt,value
2022-11-05T00:00:38.004Z,63.80
2022-11-05T00:03:24.420Z,63.80
2022-11-05T00:06:12.747Z,63.70
2022-11-05T00:09:00.642Z,63.70
2022-11-05T00:11:46.784Z,63.80
2022-11-05T00:14:33.126Z,63.70
2022-11-05T00:17:00.566Z,63.80
2022-11-05T00:19:27.949Z,63.80
2022-11-05T00:22:13.567Z,63.80
2022-11-05T00:24:59.421Z,63.80
2022-11-05T00:27:26.892Z,63.80
2022-11-05T00:29:54.264Z,63.80
2022-11-05T00:32:23.436Z,63.80
2022-11-05T00:34:50.842Z,63.70
2022-11-05T00:37:18.230Z,63.80
2022-11-05T00:39:45.573Z,63.70
2022-11-05T00:42:31.352Z,63.70
2022-11-05T00:45:01.496Z,63.80
2022-11-05T00:47:48.050Z,63.70
2022-11-05T00:50:15.928Z,63.80
2022-11-05T00:53:01.391Z,63.80
2022-11-05T00:55:47.268Z,63.70
2022-11-05T00:58:19.045Z,63.70
2022-11-05T01:00:51.057Z,63.70
2022-11-05T01:03:20.822Z,63.70
2022-11-05T01:05:50.576Z,63.60
2022-11-05T01:08:20.624Z,63.60
2022-11-05T01:10:50.967Z,63.60
2022-11-05T01:13:23.900Z,63.60
2022-11-05T01:15:51.775Z,63.60
2022-11-05T01:18:20.536Z,63.70
2022-11-05T01:20:48.492Z,63.60
2022-11-05T01:23:16.589Z,63.70
2022-11-05T01:25:44.356Z,63.60
2022-11-05T01:28:11.884Z,63.60
2022-11-05T01:30:39.397Z,63.60
2022-11-05T01:33:07.587Z,63.50
2022-11-05T01:35:35.161Z,63.60
2022-11-05T01:38:02.565Z,63.60
2022-11-05T01:40:30.009Z,63.60
2022-11-05T01:42:57.407Z,63.60
2022-11-05T01:45:27.946Z,63.60
2022-11-05T01:47:56.430Z,63.60
2022-11-05T01:50:47.517Z,63.60
2022-11-05T01:53:24.455Z,63.50
2022-11-05T01:56:06.879Z,63.60
2022-11-05T01:59:01.241Z,63.50
2022-11-05T02:01:29.241Z,63.60
2022-11-05T02:04:01.687Z,63.50
2022-11-05T02:06:32.884Z,63.60
2022-11-05T02:09:02.098Z,63.60
2022-11-05T02:11:29.807Z,63.60
2022-11-05T02:13:57.196Z,63.60
2022-11-05T02:16:37.811Z,63.60
2022-11-05T02:19:34.493Z,63.50
2022-11-05T02:22:43.205Z,63.60
2022-11-05T02:25:13.614Z,63.50
2022-11-05T02:27:53.145Z,63.60
2022-11-05T02:30:55.707Z,63.50
2022-11-05T02:33:57.136Z,63.60
2022-11-05T02:36:39.496Z,63.50
2022-11-05T02:39:25.719Z,63.60
2022-11-05T02:42:11.712Z,63.70
2022-11-05T02:44:45.344Z,63.60
2022-11-05T02:47:22.861Z,63.70
2022-11-05T02:50:08.669Z,63.60
2022-11-05T02:52:51.383Z,63.70
2022-11-05T02:55:21.445Z,63.60
2022-11-05T02:57:49.140Z,63.60
2022-11-05T03:00:38.885Z,63.60
2022-11-05T03:03:29.709Z,63.50
2022-11-05T03:06:18.260Z,63.60
2022-11-05T03:09:01.094Z,63.60
2022-11-05T03:11:32.061Z,63.50
2022-11-05T03:14:11.089Z,63.60
2022-11-05T03:16:43.294Z,63.60
2022-11-05T03:19:22.875Z,63.60
2022-11-05T03:22:30.703Z,63.50
2022-11-05T03:25:06.265Z,63.50
2022-11-05T03:27:37.379Z,63.60
2022-11-05T03:30:09.312Z,63.50
2022-11-05T03:32:41.991Z,63.60
2022-11-05T03:35:17.278Z,63.60
2022-11-05T03:37:48.247Z,63.60
2022-11-05T03:40:18.689Z,63.60
2022-11-05T03:42:50.684Z,63.60
2022-11-05T03:45:26.913Z,63.60
2022-11-05T03:48:00.035Z,63.70
2022-11-05T03:50:45.258Z,63.70
2022-11-05T03:53:17.216Z,63.60
2022-11-05T03:56:23.606Z,63.70
2022-11-05T03:58:57.571Z,63.70
2022-11-05T04:01:26.709Z,63.70
2022-11-05T04:03:54.304Z,63.70
2022-11-05T04:06:40.586Z,63.70
2022-11-05T04:09:27.491Z,63.70
2022-11-05T04:12:13.108Z,63.70
2022-11-05T04:14:40.554Z,63.70
2022-11-05T04:17:09.287Z,63.70
2022-11-05T04:20:00.109Z,63.80
2022-11-05T04:22:48.660Z,63.70
2022-11-05T04:25:17.837Z,63.70
2022-11-05T04:27:45.922Z,63.70
2022-11-05T04:30:21.862Z,63.80
2022-11-05T04:33:21.882Z,63.70
2022-11-05T04:35:49.749Z,63.70
2022-11-05T04:38:20.541Z,63.80
2022-11-05T04:40:48.680Z,63.80
2022-11-05T04:43:19.203Z,63.80
2022-11-05T04:45:47.119Z,63.80
2022-11-05T04:48:14.525Z,63.80
2022-11-05T04:50:41.886Z,63.90
2022-11-05T04:53:09.498Z,63.90
2022-11-05T04:55:37.157Z,63.80
2022-11-05T04:58:04.517Z,63.80
2022-11-05T05:00:31.925Z,63.80
2022-11-05T05:02:59.359Z,63.80
2022-11-05T05:05:26.871Z,63.80
2022-11-05T05:07:54.259Z,63.80
2022-11-05T05:10:21.604Z,63.80
2022-11-05T05:12:48.997Z,63.80
2022-11-05T05:15:16.557Z,63.80
2022-11-05T05:17:43.924Z,63.80
2022-11-05T05:20:29.603Z,63.80
2022-11-05T05:22:57.001Z,63.90
2022-11-05T05:25:24.463Z,63.80
2022-11-05T05:27:51.848Z,63.80
2022-11-05T05:30:19.209Z,63.80
2022-11-05T05:32:46.627Z,63.90
2022-11-05T05:35:14.101Z,63.90
2022-11-05T05:37:41.472Z,63.80
2022-11-05T05:40:09.698Z,63.80
2022-11-05T05:42:42.712Z,63.80
2022-11-05T05:45:11.807Z,64.40
2022-11-05T05:47:39.210Z,65.20
2022-11-05T05:50:06.783Z,64.10
2022-11-05T05:52:34.139Z,64.00
2022-11-05T05:55:01.500Z,63.90
2022-11-05T05:57:28.875Z,63.80
2022-11-05T05:59:56.289Z,63.80
2022-11-05T06:02:23.795Z,63.80
2022-11-05T06:04:51.324Z,63.70
2022-11-05T06:07:18.679Z,63.80
2022-11-05T06:09:46.053Z,63.80
2022-11-05T06:12:13.413Z,63.70
2022-11-05T06:14:40.869Z,63.70
2022-11-05T06:17:08.391Z,63.60
2022-11-05T06:19:35.807Z,63.60
2022-11-05T06:22:03.187Z,63.60
2022-11-05T06:24:30.623Z,63.60
2022-11-05T06:26:57.971Z,63.70
2022-11-05T06:29:25.414Z,63.70
2022-11-05T06:31:52.782Z,63.80
2022-11-05T06:34:20.191Z,63.80
2022-11-05T06:36:47.850Z,63.80
2022-11-05T06:39:15.225Z,63.80
2022-11-05T06:42:11.992Z,63.80
2022-11-05T06:44:32.053Z,63.80
2022-11-05T06:47:00.420Z,63.80
2022-11-05T06:49:27.790Z,63.80
2022-11-05T06:51:55.151Z,63.80
2022-11-05T06:54:22.598Z,63.80
2022-11-05T06:56:49.962Z,63.70
2022-11-05T06:59:17.513Z,63.70
2022-11-05T07:01:45.032Z,63.70
2022-11-05T07:04:12.939Z,63.70
2022-11-05T07:06:40.310Z,63.70
2022-11-05T07:09:07.746Z,63.70
2022-11-05T07:11:35.142Z,63.60
2022-11-05T07:14:02.631Z,63.60
2022-11-05T07:16:30.062Z,63.60
2022-11-05T07:18:57.418Z,63.60
2022-11-05T07:21:25.016Z,63.60
2022-11-05T07:23:52.424Z,63.60
2022-11-05T07:26:19.873Z,64.90
2022-11-05T07:28:47.250Z,64.10
2022-11-05T07:31:14.654Z,63.50
2022-11-05T07:33:42.106Z,63.50
2022-11-05T07:36:09.815Z,63.40
2022-11-05T07:38:37.185Z,63.40
2022-11-05T07:41:05.098Z,63.20
2022-11-05T07:43:32.584Z,63.30
2022-11-05T07:46:00.006Z,63.10
2022-11-05T07:48:27.416Z,63.10
2022-11-05T07:50:54.822Z,63.10
2022-11-05T07:53:22.181Z,63.70
2022-11-05T07:55:49.599Z,62.90
2022-11-05T07:58:16.947Z,62.80
2022-11-05T08:00:45.707Z,62.70
2022-11-05T08:03:18.647Z,62.70
2022-11-05T08:05:48.050Z,62.70
2022-11-05T08:08:18.359Z,62.80
2022-11-05T08:10:46.553Z,62.70
2022-11-05T08:13:14.836Z,62.70
2022-11-05T08:15:43.183Z,62.70
2022-11-05T08:18:17.991Z,62.60
2022-11-05T08:20:46.963Z,62.70
2022-11-05T08:23:14.788Z,62.70
2022-11-05T08:25:42.663Z,62.70
2022-11-05T08:28:13.064Z,62.70
2022-11-05T08:30:40.920Z,62.70
2022-11-05T08:33:11.690Z,62.90
2022-11-05T08:35:39.953Z,63.00
2022-11-05T08:38:09.231Z,63.10
2022-11-05T08:40:37.895Z,63.10
2022-11-05T08:43:07.164Z,63.20
2022-11-05T08:45:38.403Z,62.90
2022-11-05T08:48:21.785Z,62.80
2022-11-05T08:50:49.949Z,65.00
2022-11-05T08:53:17.734Z,62.60
2022-11-05T08:55:47.832Z,62.20
2022-11-05T08:58:17.180Z,61.90
2022-11-05T09:00:46.933Z,61.70
2022-11-05T09:03:14.963Z,61.60
2022-11-05T09:05:43.144Z,61.40
2022-11-05T09:08:22.067Z,61.20
2022-11-05T09:10:50.099Z,61.10
2022-11-05T09:13:19.820Z,60.80
2022-11-05T09:15:51.657Z,60.70
2022-11-05T09:18:20.141Z,60.60
2022-11-05T09:20:48.027Z,60.40
2022-11-05T09:23:15.827Z,60.20
2022-11-05T09:25:44.412Z,60.20
2022-11-05T09:28:18.400Z,60.10
2022-11-05T09:30:48.330Z,59.90
2022-11-05T09:33:17.771Z,59.80
2022-11-05T09:35:45.205Z,59.70
2022-11-05T09:38:13.032Z,59.60
2022-11-05T09:40:43.729Z,59.40
2022-11-05T09:43:18.915Z,59.30
2022-11-05T09:45:50.341Z,59.10
2022-11-05T09:48:21.882Z,59.00
2022-11-05T09:50:50.621Z,59.00
2022-11-05T09:53:19.479Z,58.70
2022-11-05T09:55:50.979Z,58.70
2022-11-05T09:58:24.508Z,58.60
2022-11-05T10:00:57.419Z,58.30
2022-11-05T10:03:26.737Z,58.10
2022-11-05T10:06:07.531Z,57.80
2022-11-05T10:08:44.229Z,57.90
2022-11-05T10:11:19.859Z,57.70
2022-11-05T10:14:06.386Z,57.70
2022-11-05T10:16:41.235Z,57.30
2022-11-05T10:19:13.543Z,57.40
2022-11-05T10:24:28.938Z,57.40
2022-11-05T10:26:57.831Z,57.30
2022-11-05T10:29:33.794Z,57.30
2022-11-05T10:32:05.664Z,57.30
2022-11-05T10:34:36.269Z,57.40
2022-11-05T10:37:04.406Z,57.50
2022-11-05T10:39:33.343Z,57.50
2022-11-05T10:42:38.030Z,57.60
2022-11-05T10:45:14.305Z,57.60
2022-11-05T10:47:50.840Z,57.70
2022-11-05T10:50:25.427Z,57.80
2022-11-05T10:52:52.756Z,58.00
2022-11-05T10:55:30.321Z,58.00
2022-11-05T10:58:15.867Z,58.20
2022-11-05T11:00:45.354Z,58.30
2022-11-05T11:03:53.026Z,58.40
2022-11-05T11:06:26.223Z,58.50
2022-11-05T11:08:56.667Z,58.50
2022-11-05T11:11:36.836Z,58.70
2022-11-05T11:14:13.493Z,58.80
2022-11-05T11:16:43.767Z,58.90
2022-11-05T11:19:31.992Z,59.00
2022-11-05T11:22:21.044Z,59.00
2022-11-05T11:24:54.282Z,59.00
2022-11-05T11:27:28.249Z,59.10
2022-11-05T11:30:04.187Z,59.10
2022-11-05T11:32:40.189Z,59.20
2022-11-05T11:35:18.098Z,59.20
2022-11-05T11:37:46.712Z,59.20
2022-11-05T11:40:29.381Z,59.30
2022-11-05T11:43:00.585Z,59.40
2022-11-05T11:45:36.751Z,59.40
2022-11-05T11:48:08.428Z,59.70
2022-11-05T11:50:44.725Z,59.40
2022-11-05T11:53:21.048Z,59.50
2022-11-05T11:56:02.388Z,59.60
2022-11-05T11:59:02.669Z,59.70
2022-11-05T12:01:45.031Z,59.70
2022-11-05T12:04:50.201Z,59.70
2022-11-05T12:07:49.883Z,59.70
2022-11-05T12:10:29.110Z,59.80
2022-11-05T12:13:22.923Z,59.80
2022-11-05T12:16:05.846Z,59.80
2022-11-05T12:18:41.584Z,59.90
2022-11-05T12:21:34.616Z,59.80
2022-11-05T12:24:44.086Z,59.90
2022-11-05T12:27:30.264Z,60.00
2022-11-05T12:30:08.194Z,60.00
2022-11-05T12:32:41.386Z,60.00
2022-11-05T12:35:26.953Z,60.10
2022-11-05T12:38:00.666Z,60.20
2022-11-05T12:41:13.154Z,60.30
2022-11-05T12:43:47.076Z,60.30
2022-11-05T12:46:20.415Z,60.40
2022-11-05T12:48:59.664Z,60.40
2022-11-05T12:51:54.612Z,60.50
2022-11-05T12:54:50.480Z,60.40
2022-11-05T12:57:20.216Z,60.40
2022-11-05T12:59:57.396Z,60.30
2022-11-05T13:02:34.989Z,60.30
2022-11-05T13:05:17.315Z,60.40
2022-11-05T13:08:01.033Z,60.40
2022-11-05T13:10:37.009Z,60.50
2022-11-05T13:13:16.533Z,60.70
2022-11-05T13:15:54.266Z,60.40
2022-11-05T13:18:35.300Z,60.30
2022-11-05T13:21:06.663Z,60.10
2022-11-05T13:23:55.697Z,60.10
2022-11-05T13:26:35.939Z,59.90
2022-11-05T13:29:05.652Z,59.90
2022-11-05T13:31:49.676Z,59.90
2022-11-05T13:34:17.130Z,59.80
2022-11-05T13:37:14.685Z,59.70
2022-11-05T13:39:54.118Z,59.60
2022-11-05T13:42:48.839Z,59.60
2022-11-05T13:45:50.345Z,59.40
2022-11-05T13:48:23.690Z,59.50
2022-11-05T13:51:00.117Z,59.60
2022-11-05T13:54:03.220Z,59.60
2022-11-05T13:56:52.595Z,59.70
2022-11-05T14:00:00.973Z,59.90
2022-11-05T14:02:44.525Z,60.00
2022-11-05T14:05:32.235Z,60.10
2022-11-05T14:08:02.463Z,60.60
2022-11-05T14:10:37.840Z,60.30
2022-11-05T14:13:27.544Z,60.10
2022-11-05T14:16:21.045Z,60.00
2022-11-05T14:19:14.769Z,60.00
2022-11-05T14:21:53.907Z,59.90
2022-11-05T14:24:43.515Z,59.90
2022-11-05T14:27:13.906Z,59.80
2022-11-05T14:29:42.610Z,59.80
2022-11-05T14:32:19.006Z,59.80
2022-11-05T14:35:04.182Z,59.80
2022-11-05T14:37:52.039Z,59.80
2022-11-05T14:40:22.610Z,59.80
2022-11-05T14:42:55.843Z,59.80
2022-11-05T14:45:39.071Z,59.90
2022-11-05T14:48:31.339Z,60.00
2022-11-05T14:50:59.874Z,60.00
2022-11-05T14:53:39.727Z,60.00
2022-11-05T14:56:19.189Z,60.00
2022-11-05T14:58:47.342Z,59.90
2022-11-05T15:01:14.933Z,60.00
2022-11-05T15:03:46.500Z,60.00
2022-11-05T15:06:35.473Z,59.90
2022-11-05T15:09:29.286Z,60.00
2022-11-05T15:11:56.678Z,59.90
2022-11-05T15:14:34.364Z,59.90
2022-11-05T15:17:19.005Z,59.90
2022-11-05T15:19:47.811Z,59.90
2022-11-05T15:22:32.871Z,59.90
2022-11-05T15:25:00.598Z,59.90
2022-11-05T15:27:43.588Z,59.90
2022-11-05T15:30:19.761Z,59.90
2022-11-05T15:32:47.767Z,59.80
2022-11-05T15:35:19.809Z,59.90
2022-11-05T15:37:53.590Z,59.80
2022-11-05T15:40:28.965Z,59.80
2022-11-05T15:43:17.510Z,60.00
2022-11-05T15:45:57.468Z,60.00
2022-11-05T15:48:25.236Z,60.20
2022-11-05T15:50:52.826Z,60.50
2022-11-05T15:54:28.647Z,60.90
2022-11-05T15:56:48.492Z,61.30
2022-11-05T15:59:19.195Z,61.10
2022-11-05T16:01:57.258Z,61.50
2022-11-05T16:04:34.684Z,61.50
2022-11-05T16:07:09.588Z,61.50
2022-11-05T16:09:40.265Z,61.50
2022-11-05T16:12:19.879Z,61.70
2022-11-05T16:14:59.505Z,61.60
2022-11-05T16:17:53.194Z,61.70
2022-11-05T16:20:25.418Z,61.70
2022-11-05T16:22:59.099Z,61.90
2022-11-05T16:25:29.227Z,61.90
2022-11-05T16:27:58.638Z,61.90
2022-11-05T16:30:26.603Z,61.90
2022-11-05T16:32:54.667Z,61.90
2022-11-05T16:35:24.763Z,61.70
2022-11-05T16:37:52.894Z,61.80
2022-11-05T16:40:26.047Z,61.80
2022-11-05T16:42:54.427Z,61.80
2022-11-05T16:45:24.830Z,61.80
2022-11-05T16:47:52.603Z,61.90
2022-11-05T16:50:30.785Z,61.90
2022-11-05T16:52:58.408Z,62.00
2022-11-05T16:55:25.955Z,62.10
2022-11-05T16:57:55.477Z,62.10
2022-11-05T17:00:24.457Z,62.30
2022-11-05T17:02:53.419Z,62.50
2022-11-05T17:05:27.808Z,62.40
2022-11-05T17:07:55.814Z,62.30
2022-11-05T17:10:25.362Z,62.20
2022-11-05T17:12:52.898Z,62.20
2022-11-05T17:15:22.198Z,62.20
2022-11-05T17:17:50.355Z,62.40
2022-11-05T17:20:42.729Z,62.20
2022-11-05T17:23:12.933Z,62.20
2022-11-05T17:25:46.051Z,62.20
2022-11-05T17:28:14.104Z,62.20
2022-11-05T17:30:42.312Z,62.20
2022-11-05T17:33:11.399Z,62.20
2022-11-05T17:35:40.409Z,62.20
2022-11-05T17:38:08.779Z,62.30
2022-11-05T17:40:37.226Z,62.20
2022-11-05T17:43:05.370Z,62.30
2022-11-05T17:45:33.309Z,62.40
2022-11-05T17:48:03.428Z,62.50
2022-11-05T17:50:30.855Z,62.50
2022-11-05T17:52:58.271Z,62.40
2022-11-05T17:55:25.969Z,62.50
2022-11-05T17:57:53.433Z,62.40
2022-11-05T18:00:23.429Z,62.50
2022-11-05T18:02:53.150Z,62.50
2022-11-05T18:05:22.441Z,62.50
2022-11-05T18:07:50.647Z,62.50
2022-11-05T18:10:18.206Z,62.60
2022-11-05T18:12:46.197Z,62.50
2022-11-05T18:15:15.652Z,62.50
2022-11-05T18:17:43.468Z,62.60
2022-11-05T18:20:18.406Z,62.50
2022-11-05T18:22:49.075Z,62.60
2022-11-05T18:25:18.147Z,62.60
2022-11-05T18:27:45.644Z,62.60
2022-11-05T18:30:15.662Z,63.40
2022-11-05T18:32:44.870Z,62.50
2022-11-05T18:35:13.606Z,62.80
2022-11-05T18:37:42.864Z,62.70
2022-11-05T18:40:13.408Z,62.60
2022-11-05T18:42:41.099Z,62.60
2022-11-05T18:45:09.863Z,62.50
2022-11-05T18:47:37.693Z,62.60
2022-11-05T18:50:09.112Z,62.60
2022-11-05T18:52:38.842Z,62.60
2022-11-05T18:55:07.539Z,63.30
2022-11-05T18:57:36.664Z,62.70
2022-11-05T19:00:06.545Z,62.70
2022-11-05T19:02:34.126Z,62.70
2022-11-05T19:07:52.202Z,62.70
2022-11-05T19:10:21.742Z,62.80
2022-11-05T19:12:49.556Z,62.70
2022-11-05T19:15:20.037Z,62.80
2022-11-05T19:17:48.403Z,62.80
2022-11-05T19:20:17.671Z,62.90
2022-11-05T19:22:46.804Z,62.80
2022-11-05T19:25:16.830Z,62.90
2022-11-05T19:27:44.720Z,62.90
2022-11-05T19:30:12.909Z,62.80
2022-11-05T19:32:44.443Z,62.90
2022-11-05T19:35:12.999Z,63.00
2022-11-05T19:37:42.546Z,63.00
2022-11-05T19:40:11.019Z,63.10
2022-11-05T19:42:38.670Z,63.00
2022-11-05T19:45:30.401Z,63.00
2022-11-05T19:47:54.271Z,63.00
2022-11-05T19:50:21.757Z,63.20
2022-11-05T19:52:49.358Z,63.00
2022-11-05T19:55:17.244Z,62.90
2022-11-05T19:57:50.076Z,62.90
2022-11-05T20:00:17.973Z,63.00
2022-11-05T20:02:48.477Z,62.90
2022-11-05T20:05:20.281Z,62.90
2022-11-05T20:07:53.037Z,62.90
2022-11-05T20:10:22.460Z,62.80
2022-11-05T20:12:51.753Z,62.80
2022-11-05T20:15:19.943Z,62.80
2022-11-05T20:17:51.538Z,62.80
2022-11-05T20:20:19.964Z,62.80
2022-11-05T20:22:53.033Z,62.80
2022-11-05T20:25:21.971Z,62.80
2022-11-05T20:27:50.705Z,62.80
2022-11-05T20:30:21.753Z,62.90
2022-11-05T20:32:57.916Z,62.80
2022-11-05T20:35:25.424Z,62.80
2022-11-05T20:37:54.188Z,62.80
2022-11-05T20:40:22.052Z,62.90
2022-11-05T20:42:49.409Z,62.70
2022-11-05T20:45:16.901Z,62.80
2022-11-05T20:47:44.332Z,63.00
2022-11-05T20:50:11.828Z,62.80
2022-11-05T20:52:39.237Z,62.80
2022-11-05T20:55:09.282Z,62.80
2022-11-05T20:57:37.596Z,62.90
2022-11-05T21:00:07.437Z,62.90
2022-11-05T21:02:35.704Z,62.90
2022-11-05T21:05:03.249Z,62.90
2022-11-05T21:07:30.728Z,62.90
2022-11-05T21:09:58.121Z,62.90
2022-11-05T21:12:25.516Z,62.90
2022-11-05T21:14:53.173Z,62.90
2022-11-05T21:17:20.603Z,62.90
2022-11-05T21:19:48.012Z,62.90
2022-11-05T21:22:15.664Z,62.90
2022-11-05T21:24:43.657Z,62.90
2022-11-05T21:27:11.128Z,62.90
2022-11-05T21:29:38.543Z,62.90
2022-11-05T21:32:06.082Z,62.90
2022-11-05T21:34:33.552Z,63.20
2022-11-05T21:37:00.914Z,63.00
2022-11-05T21:39:29.125Z,62.90
2022-11-05T21:41:56.741Z,62.90
2022-11-05T21:44:24.222Z,62.90
2022-11-05T21:46:52.707Z,62.90
2022-11-05T21:49:20.095Z,62.90
2022-11-05T21:52:05.974Z,62.90
2022-11-05T21:54:51.724Z,62.90
2022-11-05T21:57:37.598Z,62.90
2022-11-05T22:00:08.391Z,62.90
2022-11-05T22:02:37.178Z,63.00
2022-11-05T22:05:06.273Z,63.10
2022-11-05T22:07:36.497Z,63.00
2022-11-05T22:10:09.763Z,63.00
2022-11-05T22:12:40.655Z,63.10
2022-11-05T22:15:10.046Z,63.10
2022-11-05T22:17:38.352Z,63.10
2022-11-05T22:20:08.685Z,63.10
2022-11-05T22:22:36.099Z,63.10
2022-11-05T22:25:04.524Z,63.10
2022-11-05T22:27:31.863Z,63.00
2022-11-05T22:29:59.418Z,63.10
2022-11-05T22:32:26.789Z,63.10
2022-11-05T22:34:54.161Z,63.10
2022-11-05T22:37:21.523Z,63.10
2022-11-05T22:39:48.942Z,63.10
2022-11-05T22:42:16.348Z,63.10
2022-11-05T22:44:44.056Z,63.10
2022-11-05T22:47:11.520Z,63.20
2022-11-05T22:49:38.875Z,63.20
2022-11-05T22:52:06.805Z,63.10
2022-11-05T22:54:39.067Z,63.10
2022-11-05T22:57:06.915Z,63.10
2022-11-05T22:59:34.290Z,63.20
2022-11-05T23:02:06.580Z,63.20
2022-11-05T23:04:36.908Z,63.10
2022-11-05T23:07:27.248Z,63.20
2022-11-05T23:10:13.725Z,63.20
2022-11-05T23:12:43.275Z,63.20
2022-11-05T23:15:31.107Z,63.30
2022-11-05T23:18:16.720Z,63.20
2022-11-05T23:21:02.451Z,63.30
2022-11-05T23:23:48.182Z,63.20
2022-11-05T23:26:33.814Z,63.30
2022-11-05T23:29:01.175Z,63.30
2022-11-05T23:31:46.915Z,63.30
2022-11-05T23:34:14.389Z,63.20
2022-11-05T23:36:59.981Z,63.30
2022-11-05T23:39:27.387Z,63.20
2022-11-05T23:42:13.104Z,63.20
2022-11-05T23:44:58.845Z,63.20
2022-11-05T23:47:52.213Z,63.20
2022-11-05T23:50:19.648Z,63.20
2022-11-05T23:52:47.146Z,63.20
2022-11-05T23:55:14.573Z,63.20
2022-11-05T23:57:42.036Z,63.30
